Time;durP1;ratioP1;P1;durP2;ratioP2;P2;SDS_P1;SDS_P2;PMS_P1;PMS_P2;Temp;Humidity;BMP_temperature;BMP_pressure;BME280_temperature;BME280_humidity;BME280_pressure;Samples;Min_cycle;Max_cycle;Signal;HPM_P1;HPM_P2
2023/11/08 00:02:16;;;;;;;4.22;4.03;;;;;;;8.45;100.00;100308.69;6093130;23;20058;-69
2023/11/08 00:04:42;;;;;;;4.00;3.80;;;;;;;8.41;100.00;100280.13;6059745;23;20077;-69
2023/11/08 00:07:09;;;;;;;4.40;4.10;;;;;;;8.35;100.00;100268.22;6087947;23;20021;-69
2023/11/08 00:09:36;;;;;;;3.95;3.75;;;;;;;8.47;100.00;100285.09;6055587;23;20162;-70
2023/11/08 00:12:03;;;;;;;7.88;4.72;;;;;;;8.21;100.00;100245.38;6081312;23;20033;-70
2023/11/08 00:14:30;;;;;;;3.95;3.75;;;;;;;8.55;100.00;100277.69;6031500;23;20521;-70
2023/11/08 00:16:58;;;;;;;4.10;3.90;;;;;;;8.58;100.00;100283.63;6079410;23;20722;-70
2023/11/08 00:19:25;;;;;;;3.58;3.47;;;;;;;8.16;100.00;100202.94;6064348;23;20022;-69
2023/11/08 00:21:51;;;;;;;4.28;3.97;;;;;;;8.58;100.00;100259.25;6082090;23;20064;-70
2023/11/08 00:24:18;;;;;;;5.80;3.75;;;;;;;8.59;100.00;100269.63;6056351;23;20028;-70
2023/11/08 00:26:45;;;;;;;4.38;4.18;;;;;;;8.33;100.00;100210.75;6089768;23;20034;-70
2023/11/08 00:29:11;;;;;;;4.38;4.18;;;;;;;8.68;100.00;100251.75;6050330;23;20037;-69
2023/11/08 00:31:37;;;;;;;4.05;3.85;;;;;;;8.61;100.00;100222.47;6083325;23;20055;-70
2023/11/08 00:34:04;;;;;;;5.07;4.88;;;;;;;8.67;100.00;100240.44;6047933;23;20038;-69
2023/11/08 00:36:30;;;;;;;4.15;3.72;;;;;;;8.65;100.00;100252.75;6081631;23;20041;-70
2023/11/08 00:38:57;;;;;;;3.47;3.38;;;;;;;8.71;100.00;100259.47;6032287;23;20038;-69
2023/11/08 00:41:25;;;;;;;3.78;3.65;;;;;;;8.68;100.00;100257.84;6078777;23;20123;-70
2023/11/08 00:43:55;;;;;;;9.55;4.25;;;;;;;8.69;100.00;100262.16;6058532;23;20037;-69
2023/11/08 00:46:23;;;;;;;5.25;4.18;;;;;;;8.58;100.00;100240.94;6053910;23;20057;-70
2023/11/08 00:48:50;;;;;;;3.92;3.72;;;;;;;8.69;100.00;100270.00;6086924;23;20045;-69
2023/11/08 00:51:19;;;;;;;4.18;3.80;;;;;;;8.69;100.00;100274.38;6063367;23;20031;-70
2023/11/08 00:53:47;;;;;;;3.95;3.75;;;;;;;8.29;100.00;100214.44;6082394;23;20668;-69
2023/11/08 00:56:16;;;;;;;3.70;3.60;;;;;;;8.72;100.00;100275.09;6056109;23;20070;-70
2023/11/08 00:58:42;;;;;;;4.32;3.92;;;;;;;8.67;100.00;100273.63;6087455;23;20049;-69
2023/11/08 01:01:08;;;;;;;4.00;3.80;;;;;;;8.63;100.00;100274.72;6060579;23;20026;-70
2023/11/08 01:03:35;;;;;;;4.20;4.00;;;;;;;8.46;100.00;100252.00;6094050;23;20036;-70
2023/11/08 01:06:02;;;;;;;6.47;4.60;;;;;;;8.62;100.00;100289.56;6048469;23;20461;-70
2023/11/08 01:08:28;;;;;;;4.10;3.90;;;;;;;8.55;100.00;100275.09;6082307;23;20024;-70
2023/11/08 01:10:55;;;;;;;3.60;3.50;;;;;;;8.57;100.00;100294.16;6054146;23;20469;-70
2023/11/08 01:13:21;;;;;;;3.70;3.58;;;;;;;8.42;100.00;100269.63;6085534;23;20025;-69
2023/11/08 01:15:48;;;;;;;3.97;3.78;;;;;;;8.56;100.00;100322.09;6057368;23;20040;-68
2023/11/08 01:18:14;;;;;;;6.65;4.10;;;;;;;8.41;100.00;100303.66;6079168;23;20166;-70
2023/11/08 01:20:41;;;;;;;3.80;3.60;;;;;;;8.55;100.00;100343.09;6050366;23;20033;-69
2023/11/08 01:23:08;;;;;;;3.80;3.60;;;;;;;7.76;100.00;100234.47;6083259;23;20029;-70
2023/11/08 01:25:34;;;;;;;3.60;3.50;;;;;;;8.51;100.00;100346.78;6030471;23;20106;-70
2023/11/08 01:28:01;;;;;;;5.32;5.03;;;;;;;8.54;100.00;100357.94;6075735;23;20031;-70
2023/11/08 01:30:27;;;;;;;4.00;3.80;;;;;;;8.21;100.00;100313.34;6033739;23;20046;-69
2023/11/08 01:32:55;;;;;;;4.28;4.03;;;;;;;8.57;100.00;100351.72;6082434;23;20558;-69
2023/11/08 01:35:22;;;;;;;3.90;3.70;;;;;;;8.43;100.00;100335.84;6052075;23;20058;-69
2023/11/08 01:37:49;;;;;;;4.10;3.90;;;;;;;8.59;100.00;100362.94;6090034;23;20029;-69
2023/11/08 01:40:18;;;;;;;3.80;3.60;;;;;;;8.58;100.00;100363.88;6048671;23;20863;-69
2023/11/08 01:42:45;;;;;;;19.67;3.95;;;;;;;8.60;100.00;100372.50;6059307;23;20039;-70
2023/11/08 01:45:12;;;;;;;3.75;3.60;;;;;;;8.58;100.00;100356.03;6058081;23;20054;-69
2023/11/08 01:47:39;;;;;;;4.07;3.88;;;;;;;8.44;100.00;100351.47;6082951;23;20025;-69
2023/11/08 01:50:06;;;;;;;5.32;5.03;;;;;;;8.30;100.00;100323.34;6049428;23;20100;-69
2023/11/08 01:52:34;;;;;;;4.28;3.90;;;;;;;8.60;100.00;100354.19;6079906;23;20040;-68
2023/11/08 01:55:02;;;;;;;8.93;4.20;;;;;;;8.30;100.00;100306.78;6086632;23;20056;-69
2023/11/08 01:57:29;;;;;;;4.28;4.07;;;;;;;8.56;100.00;100339.56;6038574;23;20035;-70
2023/11/08 01:59:59;;;;;;;5.03;4.82;;;;;;;8.63;100.00;100355.78;6086249;23;20026;-69
2023/11/08 02:02:26;;;;;;;3.60;3.50;;;;;;;8.60;100.00;100351.56;6057470;23;20052;-69
2023/11/08 02:04:53;;;;;;;4.03;3.83;;;;;;;8.54;100.00;100339.63;6054737;23;20077;-69
2023/11/08 02:07:20;;;;;;;4.00;3.80;;;;;;;8.61;100.00;100344.56;6055772;23;20040;-69
2023/11/08 02:09:46;;;;;;;4.22;4.03;;;;;;;8.61;100.00;100344.56;6062964;23;20030;-68
2023/11/08 02:12:13;;;;;;;3.70;3.60;;;;;;;8.38;100.00;100309.91;6078177;23;20034;-70
2023/11/08 02:15:05;;;;;;;3.85;3.70;;;;;;;8.28;100.00;100288.59;6054326;23;20398;-70
2023/11/08 02:17:32;;;;;;;4.55;3.70;;;;;;;8.57;100.00;100333.41;6079757;23;20033;-70
2023/11/08 02:20:00;;;;;;;4.93;4.72;;;;;;;8.58;100.00;100330.72;6053661;23;20023;-70
2023/11/08 02:22:27;;;;;;;4.00;3.80;;;;;;;8.41;100.00;100304.53;6079220;23;20496;-70
2023/11/08 02:24:53;;;;;;;3.78;3.67;;;;;;;8.63;100.00;100325.25;6080796;23;20028;-70
2023/11/08 02:27:20;;;;;;;4.10;3.90;;;;;;;8.10;100.00;100250.28;6085078;23;20980;-70
2023/11/08 02:29:47;;;;;;;6.05;3.80;;;;;;;8.61;100.00;100328.88;6059352;23;20014;-70
2023/11/08 02:32:13;;;;;;;4.25;4.05;;;;;;;8.62;100.00;100325.31;6086077;23;20353;-70
2023/11/08 02:34:40;;;;;;;3.50;3.40;;;;;;;8.63;100.00;100316.56;6023676;23;20025;-71
2023/11/08 02:37:07;;;;;;;4.38;4.15;;;;;;;8.45;100.00;100295.63;6077287;23;20129;-71
2023/11/08 02:39:34;;;;;;;3.90;3.70;;;;;;;8.58;100.00;100309.78;6055913;23;20006;-71
2023/11/08 02:42:00;;;;;;;5.03;4.82;;;;;;;8.65;100.00;100317.31;6079601;23;20042;-70
2023/11/08 02:44:27;;;;;;;4.22;4.00;;;;;;;8.52;100.00;100297.03;6041349;23;20721;-70
2023/11/08 02:46:53;;;;;;;3.70;3.60;;;;;;;8.58;100.00;100278.41;6085847;23;20030;-70
2023/11/08 02:49:20;;;;;;;3.90;3.70;;;;;;;8.74;100.00;100309.88;6068346;23;20030;-70
2023/11/08 02:51:46;;;;;;;4.00;3.80;;;;;;;8.70;100.00;100299.59;6088040;23;20026;-70
2023/11/08 02:54:13;;;;;;;4.85;4.22;;;;;;;8.31;100.00;100248.38;6063853;23;20149;-70
2023/11/08 02:56:40;;;;;;;3.67;3.58;;;;;;;8.69;100.00;100313.63;6084475;23;20046;-70
2023/11/08 02:59:08;;;;;;;3.53;3.42;;;;;;;8.71;100.00;100320.47;6064602;23;20069;-70
2023/11/08 03:01:35;;;;;;;5.10;3.83;;;;;;;8.75;100.00;100311.53;6087186;23;20098;-71
2023/11/08 03:04:01;;;;;;;5.07;4.88;;;;;;;8.71;100.00;100289.06;6055009;23;20023;-70
2023/11/08 03:06:28;;;;;;;3.50;3.40;;;;;;;7.17;100.00;100051.06;6086233;23;20084;-69
2023/11/08 03:08:55;;;;;;;4.00;3.80;;;;;;;8.62;100.00;100302.63;6058966;23;20032;-70
2023/11/08 03:11:23;;;;;;;3.50;3.40;;;;;;;8.48;100.00;100295.47;6088712;23;20032;-70
2023/11/08 03:13:50;;;;;;;4.03;3.65;;;;;;;8.60;100.00;100304.47;6059532;23;20031;-71
2023/11/08 03:16:16;;;;;;;4.30;4.10;;;;;;;8.19;100.00;100247.22;6085869;23;20022;-70
2023/11/08 03:18:43;;;;;;;4.00;3.80;;;;;;;8.61;100.00;100323.63;6059329;23;20533;-70
2023/11/08 03:21:09;;;;;;;3.97;3.78;;;;;;;8.58;100.00;100316.78;6087720;23;20018;-69
2023/11/08 03:23:37;;;;;;;4.10;3.88;;;;;;;8.31;100.00;100264.91;6058546;23;20095;-70
2023/11/08 03:26:04;;;;;;;5.03;4.82;;;;;;;7.58;100.00;100163.06;6085140;23;20030;-71
2023/11/08 03:28:30;;;;;;;3.63;3.53;;;;;;;8.33;100.00;100296.19;6053800;23;20030;-71
2023/11/08 03:30:57;;;;;;;5.07;3.83;;;;;;;8.43;100.00;100333.25;6086616;23;20045;-71
2023/11/08 03:33:24;;;;;;;3.90;3.65;;;;;;;8.48;100.00;100344.31;6084387;23;20462;-70
2023/11/08 03:35:51;;;;;;;4.47;4.13;;;;;;;8.04;100.00;100302.84;6079497;23;20638;-71
2023/11/08 03:38:18;;;;;;;4.00;3.80;;;;;;;8.33;100.00;100341.50;6081418;23;20025;-70
2023/11/08 03:40:46;;;;;;;4.38;4.18;;;;;;;8.13;100.00;100316.31;6061808;23;20018;-71
2023/11/08 03:43:13;;;;;;;3.83;3.67;;;;;;;8.21;100.00;100351.69;6062874;23;20037;-70
2023/11/08 03:45:39;;;;;;;4.00;3.80;;;;;;;8.21;100.00;100333.41;6079867;23;20110;-70
2023/11/08 03:48:06;;;;;;;5.22;4.90;;;;;;;8.31;100.00;100366.03;6047157;23;20571;-70
2023/11/08 03:50:32;;;;;;;3.90;3.70;;;;;;;7.97;100.00;100329.25;6079541;23;20119;-70
2023/11/08 03:52:59;;;;;;;3.80;3.60;;;;;;;7.81;100.00;100304.78;6056109;23;20093;-69
2023/11/08 03:55:26;;;;;;;4.00;3.80;;;;;;;8.16;100.00;100380.69;6087768;23;20280;-70
2023/11/08 03:57:52;;;;;;;4.47;4.28;;;;;;;8.04;100.00;100373.41;6056638;23;20331;-70
2023/11/08 04:00:19;;;;;;;7.07;4.30;;;;;;;8.03;100.00;100397.84;6090514;23;20033;-71
2023/11/08 04:02:46;;;;;;;4.13;3.60;;;;;;;7.53;100.00;100331.31;6057963;23;20087;-71
2023/11/08 04:05:12;;;;;;;3.95;3.75;;;;;;;7.84;100.00;100401.31;6076066;23;20113;-71
2023/11/08 04:07:39;;;;;;;3.97;3.78;;;;;;;7.35;100.00;100344.28;6057607;23;20034;-70
2023/11/08 04:10:10;;;;;;;5.07;4.88;;;;;;;7.33;100.00;100372.22;6059529;23;20022;-70
2023/11/08 04:12:37;;;;;;;4.10;3.80;;;;;;;7.48;100.00;100433.38;6034572;23;20097;-70
2023/11/08 04:15:04;;;;;;;3.83;3.63;;;;;;;7.43;100.00;100450.16;6094062;23;20033;-70
2023/11/08 04:17:31;;;;;;;4.38;4.00;;;;;;;7.05;100.00;100416.09;6056128;23;20030;-70
2023/11/08 04:19:58;;;;;;;4.63;4.43;;;;;;;7.28;100.00;100469.94;6092476;23;20013;-70
2023/11/08 04:22:24;;;;;;;4.10;3.90;;;;;;;7.25;100.00;100488.31;6055232;23;20022;-70
2023/11/08 04:24:51;;;;;;;3.97;3.78;;;;;;;6.66;100.00;100424.66;6085008;23;20029;-70
2023/11/08 04:27:18;;;;;;;3.80;3.65;;;;;;;7.19;100.00;100521.59;6074437;23;20198;-71
2023/11/08 04:29:44;;;;;;;3.70;3.60;;;;;;;6.84;100.00;100488.28;6077411;23;20017;-70
2023/11/08 04:32:10;;;;;;;4.40;4.15;;;;;;;6.97;100.00;100503.34;6059694;23;20026;-71
2023/11/08 04:34:37;;;;;;;4.47;4.28;;;;;;;7.12;100.00;100542.78;6076146;23;20020;-70
2023/11/08 04:37:06;;;;;;;3.88;3.67;;;;;;;7.07;100.00;100540.34;6058512;23;20030;-72
2023/11/08 04:39:32;;;;;;;4.63;3.58;;;;;;;6.91;100.00;100528.84;6089671;23;20025;-70
2023/11/08 04:41:58;;;;;;;4.72;4.53;;;;;;;6.97;100.00;100549.47;6055894;23;20122;-71
2023/11/08 04:44:25;;;;;;;3.65;3.55;;;;;;;6.84;100.00;100538.66;6080558;23;20049;-71
2023/11/08 04:46:51;;;;;;;3.90;3.70;;;;;;;6.94;100.00;100563.47;6083023;23;20018;-71
2023/11/08 04:49:18;;;;;;;3.70;3.60;;;;;;;6.95;100.00;100566.94;6067406;23;20050;-73
2023/11/08 04:51:44;;;;;;;3.75;3.55;;;;;;;6.92;100.00;100567.06;6061179;23;20030;-69
2023/11/08 04:54:12;;;;;;;4.18;3.97;;;;;;;6.83;100.00;100556.97;6080430;23;20033;-70
2023/11/08 04:56:40;;;;;;;3.60;3.50;;;;;;;6.78;100.00;100558.00;6062418;23;20108;-70
2023/11/08 04:59:11;;;;;;;3.50;3.40;;;;;;;6.55;100.00;100517.16;6048312;23;20014;-70
2023/11/08 05:01:37;;;;;;;3.45;3.35;;;;;;;6.67;100.00;100544.53;6084414;23;20079;-69
2023/11/08 05:04:04;;;;;;;4.85;4.65;;;;;;;6.41;100.00;100510.78;6024713;23;20018;-69
2023/11/08 05:06:30;;;;;;;3.50;3.40;;;;;;;6.60;100.00;100550.91;6084536;23;20037;-70
2023/11/08 05:08:57;;;;;;;3.60;3.50;;;;;;;6.36;100.00;100530.06;6032214;23;20022;-69
2023/11/08 05:11:25;;;;;;;4.13;3.83;;;;;;;6.29;100.00;100517.31;6080794;23;20465;-70
2023/11/08 05:13:51;;;;;;;3.70;3.58;;;;;;;6.53;100.00;100565.06;6054110;23;20042;-70
2023/11/08 05:16:21;;;;;;;4.72;4.53;;;;;;;6.14;100.00;100514.38;6082710;23;20091;-70
2023/11/08 05:18:49;;;;;;;3.80;3.60;;;;;;;6.30;100.00;100550.28;6053051;23;20664;-70
2023/11/08 05:21:16;;;;;;;3.42;3.33;;;;;;;6.52;100.00;100592.91;6082450;23;20028;-72
2023/11/08 05:23:43;;;;;;;3.53;3.42;;;;;;;6.50;100.00;100589.50;6048941;23;20011;-70
2023/11/08 05:26:09;;;;;;;6.35;3.50;;;;;;;5.51;100.00;100435.88;6080215;23;20104;-71
2023/11/08 05:28:37;;;;;;;3.60;3.50;;;;;;;6.42;100.00;100588.09;6076760;23;20025;-71
2023/11/08 05:31:04;;;;;;;3.70;3.60;;;;;;;6.17;100.00;100552.47;6083436;23;20029;-71
2023/11/08 05:33:30;;;;;;;3.80;3.65;;;;;;;6.18;100.00;100568.06;6083015;23;20096;-70
2023/11/08 05:35:58;;;;;;;4.70;4.50;;;;;;;5.82;100.00;100514.66;6080717;23;20025;-71
2023/11/08 05:38:25;;;;;;;4.07;3.88;;;;;;;6.31;100.00;100611.91;6082696;23;20638;-71
2023/11/08 05:40:53;;;;;;;3.70;3.60;;;;;;;6.44;100.00;100631.44;6065056;23;20555;-71
2023/11/08 05:43:21;;;;;;;4.18;3.97;;;;;;;6.19;100.00;100603.66;6082261;23;20030;-71
2023/11/08 05:45:48;;;;;;;4.65;3.67;;;;;;;5.87;100.00;100539.59;6087626;23;20100;-70
2023/11/08 05:48:15;;;;;;;13.70;13.00;;;;;;;6.42;100.00;100632.41;5966017;23;20079;-70
2023/11/08 05:50:43;;;;;;;3.65;3.45;;;;;;;5.36;100.00;100457.22;6082387;23;20021;-70
2023/11/08 05:53:14;;;;;;;3.60;3.40;;;;;;;6.46;100.00;100642.66;6024193;23;20014;-71
2023/11/08 05:55:41;;;;;;;3.70;3.60;;;;;;;6.50;100.00;100643.41;6080410;23;20093;-70
2023/11/08 05:58:08;;;;;;;5.28;4.97;;;;;;;6.48;100.00;100643.44;6051018;23;20809;-70
2023/11/08 06:00:40;;;;;;;3.53;3.42;;;;;;;6.14;100.00;100589.94;6086700;23;20033;-70
2023/11/08 06:03:06;;;;;;;3.97;3.78;;;;;;;6.04;100.00;100585.94;6034547;23;20018;-70
2023/11/08 06:05:33;;;;;;;3.90;3.70;;;;;;;6.02;100.00;100581.72;6080245;23;20022;-71
2023/11/08 06:08:03;;;;;;;8.13;4.90;;;;;;;6.48;100.00;100659.09;6057663;23;20034;-71
2023/11/08 06:10:30;;;;;;;4.32;4.13;;;;;;;6.55;100.00;100668.38;6080364;23;20066;-71
2023/11/08 06:12:56;;;;;;;3.92;3.72;;;;;;;6.58;100.00;100677.88;6056061;23;20505;-71
2023/11/08 06:15:23;;;;;;;3.83;3.63;;;;;;;6.58;100.00;100677.88;6084593;23;20037;-70
2023/11/08 06:17:52;;;;;;;3.70;3.50;;;;;;;6.62;100.00;100686.44;6046931;23;20031;-71
2023/11/08 06:20:19;;;;;;;3.40;3.30;;;;;;;6.30;100.00;100637.13;6081948;23;20092;-70
2023/11/08 06:22:47;;;;;;;4.05;3.72;;;;;;;6.68;100.00;100688.81;6058900;23;20054;-71
2023/11/08 06:25:15;;;;;;;3.78;3.58;;;;;;;6.72;100.00;100693.88;6090198;23;20018;-71
2023/11/08 06:27:41;;;;;;;3.72;3.53;;;;;;;6.77;100.00;100714.56;6060455;23;20023;-70
2023/11/08 06:30:08;;;;;;;4.45;4.25;;;;;;;6.84;100.00;100705.63;6076436;23;20371;-70
2023/11/08 06:32:35;;;;;;;3.70;3.60;;;;;;;6.85;100.00;100704.69;6055020;23;20422;-70
2023/11/08 06:35:02;;;;;;;3.90;3.70;;;;;;;7.00;100.00;100713.72;6053746;23;20034;-70
2023/11/08 06:37:29;;;;;;;3.85;3.65;;;;;;;7.04;100.00;100723.13;6051414;23;20520;-71
2023/11/08 06:39:55;;;;;;;4.78;4.57;;;;;;;6.62;100.00;100636.91;6088963;23;20081;-70
2023/11/08 06:42:22;;;;;;;3.88;3.72;;;;;;;7.22;100.00;100713.78;6029862;23;20034;-70
2023/11/08 06:44:48;;;;;;;3.80;3.60;;;;;;;7.27;100.00;100711.81;6093128;23;20105;-71
2023/11/08 06:47:15;;;;;;;3.60;3.50;;;;;;;7.27;100.00;100698.78;6056077;23;20102;-71
2023/11/08 06:49:42;;;;;;;3.47;3.38;;;;;;;7.08;100.00;100672.53;6064437;23;20568;-70
2023/11/08 06:52:09;;;;;;;4.70;4.40;;;;;;;7.37;100.00;100707.94;6057321;23;20034;-74
2023/11/08 06:54:35;;;;;;;3.65;3.55;;;;;;;7.39;100.00;100703.50;6084615;23;20650;-73
2023/11/08 06:57:03;;;;;;;4.93;4.05;;;;;;;7.10;100.00;100656.84;6060981;23;20049;-74
2023/11/08 06:59:29;;;;;;;4.10;3.90;;;;;;;7.10;100.00;100646.41;6084017;23;20022;-76
2023/11/08 07:01:56;;;;;;;4.93;4.70;;;;;;;6.99;100.00;100625.91;6052186;23;20026;-74
2023/11/08 07:04:23;;;;;;;5.63;4.15;;;;;;;6.65;100.00;100551.56;6084009;23;20106;-71
2023/11/08 07:06:49;;;;;;;4.10;3.80;;;;;;;7.42;100.00;100671.22;6055980;23;20038;-71
2023/11/08 07:09:17;;;;;;;3.70;3.58;;;;;;;7.67;100.00;100699.81;6091055;23;20055;-71
2023/11/08 07:11:43;;;;;;;3.92;3.72;;;;;;;7.54;100.00;100662.91;6054302;23;20050;-72
2023/11/08 07:14:10;;;;;;;3.97;3.78;;;;;;;7.59;100.00;100660.94;6083195;23;20282;-71
2023/11/08 07:16:37;;;;;;;4.78;4.15;;;;;;;7.88;100.00;100682.44;6049002;23;20033;-71
2023/11/08 07:19:08;;;;;;;4.15;3.95;;;;;;;7.79;100.00;100656.69;6091206;23;20041;-71
2023/11/08 07:21:34;;;;;;;4.20;4.00;;;;;;;7.87;100.00;100662.44;6054918;23;20034;-75
2023/11/08 07:24:01;;;;;;;5.05;4.85;;;;;;;7.94;100.00;100647.38;6084272;23;20025;-74
2023/11/08 07:26:27;;;;;;;3.63;3.42;;;;;;;7.42;100.00;100535.47;6057304;23;20468;-71
2023/11/08 07:28:54;;;;;;;8.15;3.63;;;;;;;8.16;100.00;100645.53;6082127;23;20090;-76
2023/11/08 07:31:20;;;;;;;3.67;3.58;;;;;;;8.22;100.00;100639.19;6059020;23;20648;-77
2023/11/08 07:33:49;;;;;;;4.10;3.90;;;;;;;8.24;100.00;100619.06;6088299;23;20026;-75
2023/11/08 07:36:16;;;;;;;4.05;3.80;;;;;;;8.30;100.00;100597.88;6058088;23;20042;-77
2023/11/08 07:38:42;;;;;;;3.88;3.67;;;;;;;8.08;100.00;100548.31;6055554;23;21687;-76
2023/11/08 07:41:08;;;;;;;4.07;3.88;;;;;;;7.98;100.00;100526.94;6058420;23;20087;-74
2023/11/08 07:43:35;;;;;;;3.78;3.67;;;;;;;7.52;100.00;100419.28;6081103;23;20041;-76
2023/11/08 07:46:01;;;;;;;5.00;4.78;;;;;;;8.53;100.00;100572.47;6059843;23;20066;-75
2023/11/08 07:48:28;;;;;;;4.15;3.95;;;;;;;8.57;100.00;100558.34;6082660;23;20009;-75
2023/11/08 07:50:55;;;;;;;4.00;3.80;;;;;;;8.18;100.00;100472.94;6057436;23;20026;-76
2023/11/08 07:53:21;;;;;;;3.88;3.67;;;;;;;8.23;100.00;100498.88;6085380;23;20040;-76
2023/11/08 07:55:49;;;;;;;4.28;4.07;;;;;;;8.04;100.00;100449.19;6053621;23;20082;-77
2023/11/08 07:58:17;;;;;;;4.00;3.80;;;;;;;8.52;100.00;100514.09;6088902;23;20029;-75
2023/11/08 08:00:45;;;;;;;4.38;4.18;;;;;;;8.09;100.00;100431.53;6059757;23;20585;-75
2023/11/08 08:03:13;;;;;;;4.05;3.85;;;;;;;8.38;100.00;100483.31;6085043;23;20057;-74
2023/11/08 08:05:44;;;;;;;4.07;3.88;;;;;;;8.53;100.00;100486.16;6057757;23;20029;-75
2023/11/08 08:08:14;;;;;;;4.65;4.35;;;;;;;8.71;100.00;100500.16;6052217;23;20763;-74
2023/11/08 08:10:44;;;;;;;4.22;4.00;;;;;;;8.70;100.00;100485.34;6058992;23;20049;-71
2023/11/08 08:13:11;;;;;;;3.95;3.75;;;;;;;8.34;100.00;100436.47;6091937;23;20013;-74
2023/11/08 08:15:53;;;;;;;5.82;5.45;;;;;;;8.30;100.00;100414.00;6062326;23;20095;-71
2023/11/08 08:18:20;;;;;;;3.63;3.53;;;;;;;8.69;100.00;100475.81;6083664;23;20030;-71
2023/11/08 08:20:47;;;;;;;5.10;4.07;;;;;;;8.45;100.00;100436.00;6034342;23;20482;-73
2023/11/08 08:23:13;;;;;;;3.80;3.60;;;;;;;8.77;100.00;100490.22;6070878;23;20042;-73
2023/11/08 08:25:40;;;;;;;4.18;3.97;;;;;;;8.38;100.00;100419.72;6081033;23;20034;-78
2023/11/08 08:28:08;;;;;;;12.57;5.13;;;;;;;7.86;100.00;100331.56;6066949;23;20018;-77
2023/11/08 08:30:34;;;;;;;4.53;4.32;;;;;;;8.84;100.00;100471.59;6059017;23;20053;-76
2023/11/08 08:33:04;;;;;;;4.00;3.80;;;;;;;8.89;100.00;100461.78;6087797;23;20026;-75
2023/11/08 08:35:32;;;;;;;4.00;3.80;;;;;;;8.79;100.00;100436.06;6088333;23;20022;-76
2023/11/08 08:37:59;;;;;;;5.68;5.25;;;;;;;8.32;100.00;100352.88;6079532;23;20493;-73
2023/11/08 08:40:25;;;;;;;4.20;3.90;;;;;;;9.06;100.00;100448.72;6060370;23;20096;-74
2023/11/08 08:42:52;;;;;;;4.07;3.80;;;;;;;8.51;100.00;100331.94;6082891;23;20378;-76
2023/11/08 08:45:19;;;;;;;5.00;3.90;;;;;;;8.98;100.00;100396.75;6087193;23;20075;-74
2023/11/08 08:47:48;;;;;;;4.10;3.80;;;;;;;9.13;100.00;100373.31;6084759;23;20101;-76
2023/11/08 08:50:16;;;;;;;3.90;3.70;;;;;;;9.17;100.00;100346.91;6053994;23;20049;-79
2023/11/08 08:52:44;;;;;;;4.22;4.03;;;;;;;9.10;100.00;100289.69;6079433;23;20092;-75
2023/11/08 08:55:13;;;;;;;4.05;3.85;;;;;;;9.48;100.00;100315.63;6054272;23;20018;-76
2023/11/08 08:57:45;;;;;;;4.10;3.90;;;;;;;9.94;100.00;100334.94;6085093;23;20041;-75
2023/11/08 09:00:14;;;;;;;4.30;4.00;;;;;;;8.75;100.00;100057.75;6052456;23;20010;-70
2023/11/08 09:02:41;;;;;;;3.80;3.70;;;;;;;10.12;100.00;100240.44;6081903;23;20078;-71
2023/11/08 09:05:09;;;;;;;3.97;3.78;;;;;;;10.44;100.00;100256.13;6069069;23;20582;-75
2023/11/08 09:07:39;;;;;;;8.88;4.25;;;;;;;10.37;100.00;100187.44;6084447;23;20101;-74
2023/11/08 09:10:06;;;;;;;4.85;4.65;;;;;;;10.58;100.00;100182.66;6089134;23;20030;-71
2023/11/08 09:12:33;;;;;;;4.10;3.90;;;;;;;10.40;100.00;100139.19;6080815;23;20037;-74
2023/11/08 09:15:01;;;;;;;6.28;4.15;;;;;;;10.71;99.75;100159.16;6087855;23;20038;-75
2023/11/08 09:17:28;;;;;;;4.20;4.00;;;;;;;10.82;98.79;100156.72;6091885;23;20037;-75
2023/11/08 09:19:55;;;;;;;5.38;4.90;;;;;;;10.68;98.38;100139.19;6055911;23;20026;-70
2023/11/08 09:22:24;;;;;;;4.10;3.90;;;;;;;10.21;99.49;100107.97;6090756;23;20021;-73
2023/11/08 09:24:50;;;;;;;4.10;3.90;;;;;;;9.79;98.66;100055.38;6051991;23;20089;-71
2023/11/08 09:27:18;;;;;;;5.47;4.95;;;;;;;10.54;99.90;100194.28;6082578;23;20030;-71
2023/11/08 09:29:45;;;;;;;4.43;4.22;;;;;;;10.55;98.78;100180.25;6034900;23;20551;-72
2023/11/08 09:32:11;;;;;;;4.50;4.20;;;;;;;10.61;98.31;100177.25;6083072;23;20192;-71
2023/11/08 09:34:38;;;;;;;4.45;4.25;;;;;;;10.21;96.05;100077.34;6059519;23;20032;-72
2023/11/08 09:37:05;;;;;;;4.80;4.20;;;;;;;10.50;93.79;100041.50;6059257;23;20022;-76
2023/11/08 09:39:32;;;;;;;4.85;4.50;;;;;;;10.68;93.29;100063.06;6051612;23;20480;-70
2023/11/08 09:41:58;;;;;;;5.10;4.90;;;;;;;10.71;92.45;100048.94;6061930;23;20030;-70
2023/11/08 09:44:25;;;;;;;4.15;3.95;;;;;;;10.84;91.12;100012.25;6061848;23;20022;-72
2023/11/08 09:46:54;;;;;;;5.00;4.70;;;;;;;11.12;91.10;100083.03;6090711;23;20051;-70
2023/11/08 09:49:24;;;;;;;4.35;4.07;;;;;;;10.80;90.93;100029.97;6062303;23;20038;-70
2023/11/08 09:51:55;;;;;;;5.18;4.93;;;;;;;11.01;90.48;100061.91;6078461;23;20801;-76
2023/11/08 09:54:21;;;;;;;4.35;4.15;;;;;;;11.36;90.33;100112.13;6055055;23;20531;-71
2023/11/08 09:56:48;;;;;;;4.30;4.10;;;;;;;10.95;89.67;100004.53;6083759;23;20981;-70
2023/11/08 09:59:16;;;;;;;4.45;4.25;;;;;;;11.02;89.73;100036.47;6088819;23;20037;-71
2023/11/08 10:01:45;;;;;;;4.50;4.30;;;;;;;11.30;89.28;100062.63;6085424;23;20073;-71
2023/11/08 10:04:15;;;;;;;8.90;4.45;;;;;;;11.22;88.84;100040.44;6050503;23;20028;-71
2023/11/08 10:06:46;;;;;;;7.95;4.25;;;;;;;11.22;88.56;100045.69;6025447;23;20026;-75
2023/11/08 10:09:13;;;;;;;4.32;4.13;;;;;;;11.38;89.56;100091.00;6053520;23;20038;-75
2023/11/08 10:11:42;;;;;;;6.75;4.35;;;;;;;11.20;87.69;100016.06;6058650;23;20362;-72
2023/11/08 10:14:08;;;;;;;5.13;4.93;;;;;;;11.35;86.74;100012.41;6059871;23;20470;-70
2023/11/08 10:16:45;;;;;;;5.25;4.72;;;;;;;11.25;86.20;99975.41;6089819;23;20036;-73
2023/11/08 10:19:23;;;;;;;4.20;4.00;;;;;;;11.30;85.56;99967.22;6037408;23;20096;-75
2023/11/08 10:22:19;;;;;;;4.65;4.45;;;;;;;10.80;84.93;99901.34;6085836;23;20472;-73
2023/11/08 10:24:59;;;;;;;4.47;4.28;;;;;;;11.23;84.14;99964.16;6051295;23;20053;-77
2023/11/08 10:27:27;;;;;;;4.70;4.40;;;;;;;10.16;84.99;99838.16;6086928;23;20095;-75
2023/11/08 10:30:22;;;;;;;5.15;4.95;;;;;;;9.65;83.92;99701.69;6085651;23;20050;-76
2023/11/08 10:32:48;;;;;;;4.68;4.47;;;;;;;10.85;84.34;99896.66;6084246;23;20105;-71
2023/11/08 10:35:19;;;;;;;5.60;4.30;;;;;;;10.99;82.71;99872.13;6088850;23;20084;-72
2023/11/08 10:37:48;;;;;;;4.57;4.38;;;;;;;11.40;81.97;99922.78;6057385;23;20059;-76
2023/11/08 10:40:16;;;;;;;4.53;4.32;;;;;;;11.12;81.83;99896.59;6066070;23;20021;-76
2023/11/08 10:42:50;;;;;;;4.55;4.35;;;;;;;10.51;81.35;99772.94;6089473;23;20030;-76
2023/11/08 10:45:19;;;;;;;4.90;4.47;;;;;;;11.21;81.92;99910.06;6057978;23;20026;-72
2023/11/08 10:47:46;;;;;;;4.82;4.57;;;;;;;11.04;81.35;99883.13;6081026;23;20542;-72
2023/11/08 10:50:15;;;;;;;4.30;4.10;;;;;;;11.00;82.87;99954.34;6027350;23;21821;-76
2023/11/08 10:52:44;;;;;;;4.68;4.47;;;;;;;11.01;84.22;100021.69;6086426;23;20401;-75
2023/11/08 10:55:11;;;;;;;6.05;4.65;;;;;;;10.29;84.70;99909.03;6075686;23;20015;-77
2023/11/08 10:57:41;;;;;;;5.28;4.53;;;;;;;10.91;82.87;99940.03;6052738;23;20130;-76
2023/11/08 11:00:08;;;;;;;5.93;5.53;;;;;;;11.21;81.58;99952.91;6073103;23;20459;-75
2023/11/08 11:02:53;;;;;;;4.40;4.20;;;;;;;11.15;80.39;99899.03;6050329;23;20027;-76
2023/11/08 11:05:22;;;;;;;4.40;4.20;;;;;;;11.17;80.09;99862.16;6073203;23;20029;-76
2023/11/08 11:07:52;;;;;;;7.22;4.93;;;;;;;11.17;79.88;99888.41;6057229;23;20362;-77
2023/11/08 11:10:19;;;;;;;6.15;5.15;;;;;;;11.01;80.91;99893.84;6067769;23;20022;-77
2023/11/08 11:12:48;;;;;;;5.18;4.40;;;;;;;11.51;79.27;99910.59;6068609;23;20034;-77
2023/11/08 11:15:32;;;;;;;4.50;4.25;;;;;;;11.29;77.78;99821.91;6058066;23;20029;-76
2023/11/08 11:18:00;;;;;;;5.32;5.13;;;;;;;10.86;77.94;99751.34;6084707;23;20034;-74
2023/11/08 11:20:34;;;;;;;4.40;4.20;;;;;;;10.93;77.77;99775.41;6056480;23;20030;-79
2023/11/08 11:23:04;;;;;;;4.50;4.30;;;;;;;11.12;78.17;99840.59;6086871;23;20501;-75
2023/11/08 11:25:50;;;;;;;4.40;4.20;;;;;;;11.21;79.53;99918.78;6053958;23;20050;-77
2023/11/08 11:28:52;;;;;;;5.22;4.75;;;;;;;11.13;80.07;99936.84;6080121;23;20055;-71
2023/11/08 11:31:35;;;;;;;4.53;4.23;;;;;;;10.86;80.34;99902.75;6063187;23;20030;-76